Terminal Aerodrome Forecast
Issued by NWS Miami, FL

Home | Current Version | Previous Version | Text Only | Print | Product List | Glossary On
Versions: 1 2 3 4 5 6 7 8 9 10 11 12 13 14 15 16 17 18 19 20 21 22 23 24 25 26 27 28 29 30 31 32 33 34 35 36 37 38 39 40 41 42 43
000
FTUS42 KMFL 031128
TAFAPF
TAF
KAPF 031128Z 0312/0412 06005KT P6SM FEW010 SCT070
     FM031300 11007KT P6SM VCSH SCT030 SCT060
     FM031800 20008KT P6SM VCTS SCT030CB BKN060
     FM040100 VRB03KT P6SM FEW030 SCT250=

USA.gov is the U.S. government's official web portal to all federal, state and local government web resources and services.